createdAt,value
2017-11-18T00:01:54.574Z,4.40
2017-11-18T00:04:22.117Z,4.40
2017-11-18T00:06:49.643Z,4.40
2017-11-18T00:09:17.216Z,4.30
2017-11-18T00:11:44.766Z,4.30
2017-11-18T00:14:12.300Z,4.30
2017-11-18T00:16:39.859Z,4.30
2017-11-18T00:19:07.397Z,4.30
2017-11-18T00:21:34.977Z,4.30
2017-11-18T00:24:02.519Z,4.30
2017-11-18T00:26:30.075Z,4.30
2017-11-18T00:28:57.624Z,4.30
2017-11-18T00:31:25.227Z,4.40
2017-11-18T00:33:53.539Z,4.40
2017-11-18T00:36:21.098Z,4.30
2017-11-18T00:38:48.647Z,4.30
2017-11-18T00:41:16.173Z,4.40
2017-11-18T00:43:43.729Z,4.40
2017-11-18T00:46:12.043Z,4.40
2017-11-18T00:48:39.583Z,4.40
2017-11-18T00:51:07.925Z,4.50
2017-11-18T00:53:35.482Z,4.40
2017-11-18T00:56:03.057Z,4.50
2017-11-18T00:58:30.602Z,4.50
2017-11-18T01:00:58.185Z,4.60
2017-11-18T01:03:26.495Z,4.60
2017-11-18T01:05:54.033Z,4.50
2017-11-18T01:08:22.341Z,4.60
2017-11-18T01:10:49.869Z,4.60
2017-11-18T01:13:18.205Z,4.60
2017-11-18T01:15:45.774Z,4.60
2017-11-18T01:18:13.311Z,4.60
2017-11-18T01:20:40.871Z,4.60
2017-11-18T01:23:08.408Z,4.50
2017-11-18T01:25:35.989Z,4.50
2017-11-18T01:28:03.639Z,4.40
2017-11-18T01:30:31.187Z,4.40
2017-11-18T01:32:58.758Z,4.40
2017-11-18T01:35:26.299Z,4.40
2017-11-18T01:37:53.890Z,4.50
2017-11-18T01:40:21.448Z,4.50
2017-11-18T01:42:49.022Z,4.50
2017-11-18T01:45:16.582Z,4.50
2017-11-18T01:47:44.151Z,4.50
2017-11-18T01:50:11.676Z,4.40
2017-11-18T01:52:39.455Z,4.40
2017-11-18T01:55:07.001Z,4.30
2017-11-18T01:57:34.525Z,4.30
2017-11-18T02:00:02.107Z,4.30
2017-11-18T02:02:41.504Z,4.20
2017-11-18T02:05:09.840Z,4.10
2017-11-18T02:07:37.390Z,4.10
2017-11-18T02:10:04.946Z,4.00
2017-11-18T02:12:32.511Z,4.00
2017-11-18T02:15:00.069Z,4.00
2017-11-18T02:17:27.643Z,3.90
2017-11-18T02:19:55.197Z,3.90
2017-11-18T02:22:22.764Z,3.90
2017-11-18T02:24:50.323Z,3.80
2017-11-18T02:27:17.858Z,3.80
2017-11-18T02:29:45.430Z,3.80
2017-11-18T02:32:12.985Z,3.70
2017-11-18T02:34:40.516Z,3.60
2017-11-18T02:37:08.078Z,3.70
2017-11-18T02:39:35.936Z,3.60
2017-11-18T02:42:03.492Z,3.60
2017-11-18T02:44:31.034Z,3.50
2017-11-18T02:46:59.343Z,3.40
2017-11-18T02:49:26.903Z,3.40
2017-11-18T02:51:54.447Z,3.40
2017-11-18T02:54:22.014Z,3.30
2017-11-18T02:56:49.558Z,3.20
2017-11-18T02:59:17.912Z,3.10
2017-11-18T03:01:45.458Z,3.10
2017-11-18T03:04:13.018Z,3.10
2017-11-18T03:06:40.587Z,3.00
2017-11-18T03:09:08.116Z,3.00
2017-11-18T03:11:35.665Z,3.00
2017-11-18T03:14:03.221Z,3.00
2017-11-18T03:16:30.785Z,3.10
2017-11-18T03:18:58.343Z,3.20
2017-11-18T03:21:25.883Z,3.20
2017-11-18T03:23:53.463Z,3.30
2017-11-18T03:26:21.021Z,3.40
2017-11-18T03:28:48.550Z,3.40
2017-11-18T03:31:16.127Z,3.40
2017-11-18T03:33:43.693Z,3.50
2017-11-18T03:36:11.266Z,3.60
2017-11-18T03:38:38.811Z,3.70
2017-11-18T03:41:06.354Z,3.80
2017-11-18T03:43:33.943Z,3.90
2017-11-18T03:46:01.596Z,3.90
2017-11-18T03:48:29.122Z,4.00
2017-11-18T03:50:57.431Z,4.10
2017-11-18T03:53:25.009Z,4.20
2017-11-18T03:55:52.577Z,4.20
2017-11-18T03:58:20.143Z,4.20
2017-11-18T04:00:53.412Z,4.30
2017-11-18T04:03:20.951Z,4.30
2017-11-18T04:05:48.498Z,4.30
2017-11-18T04:08:16.066Z,4.40
2017-11-18T04:10:43.615Z,4.50
2017-11-18T04:13:11.195Z,4.50
2017-11-18T04:15:38.761Z,4.50
2017-11-18T04:18:06.319Z,4.50
2017-11-18T04:20:33.863Z,4.50
2017-11-18T04:23:01.557Z,4.60
2017-11-18T04:25:29.104Z,4.60
2017-11-18T04:27:56.690Z,4.60
2017-11-18T04:30:24.235Z,4.60
2017-11-18T04:32:51.879Z,4.60
2017-11-18T04:35:19.453Z,4.60
2017-11-18T04:37:47.016Z,4.60
2017-11-18T04:40:14.577Z,4.60
2017-11-18T04:42:42.133Z,4.70
2017-11-18T04:45:09.699Z,4.60
2017-11-18T04:47:37.244Z,4.60
2017-11-18T04:50:04.805Z,4.60
2017-11-18T04:52:32.366Z,4.60
2017-11-18T04:54:59.888Z,4.70
2017-11-18T04:57:27.468Z,4.70
2017-11-18T04:59:55.001Z,4.70
2017-11-18T05:02:22.578Z,4.70
2017-11-18T05:04:50.139Z,4.60
2017-11-18T05:07:17.664Z,4.60
2017-11-18T05:09:46.088Z,4.60
2017-11-18T05:12:13.641Z,4.60
2017-11-18T05:14:41.214Z,4.60
2017-11-18T05:17:08.741Z,4.50
2017-11-18T05:19:36.290Z,4.60
2017-11-18T05:22:03.851Z,4.60
2017-11-18T05:24:31.378Z,4.60
2017-11-18T05:26:58.947Z,4.60
2017-11-18T05:29:27.292Z,4.60
2017-11-18T05:31:54.839Z,4.60
2017-11-18T05:34:22.391Z,4.60
2017-11-18T05:36:49.939Z,4.60
2017-11-18T05:39:17.573Z,4.60
2017-11-18T05:41:45.868Z,4.70
2017-11-18T05:44:13.408Z,4.70
2017-11-18T05:46:41.741Z,4.70
2017-11-18T05:49:09.286Z,4.70
2017-11-18T05:51:36.842Z,4.70
2017-11-18T05:54:04.411Z,4.80
2017-11-18T05:56:31.945Z,4.80
2017-11-18T05:58:59.486Z,4.80
2017-11-18T06:01:27.807Z,4.80
2017-11-18T06:03:55.370Z,4.70
2017-11-18T06:06:22.943Z,4.80
2017-11-18T06:08:50.469Z,4.70
2017-11-18T06:11:18.025Z,4.80
2017-11-18T06:13:45.595Z,4.80
2017-11-18T06:16:13.150Z,4.80
2017-11-18T06:18:40.719Z,4.80
2017-11-18T06:21:08.255Z,4.80
2017-11-18T06:23:35.780Z,4.80
2017-11-18T06:26:04.125Z,4.80
2017-11-18T06:28:31.685Z,4.70
2017-11-18T06:30:59.243Z,4.80
2017-11-18T06:33:26.777Z,4.80
2017-11-18T06:35:54.321Z,4.70
2017-11-18T06:38:21.860Z,4.80
2017-11-18T06:40:50.187Z,4.70
2017-11-18T06:43:17.719Z,4.70
2017-11-18T06:45:45.306Z,4.70
2017-11-18T06:48:12.833Z,4.70
2017-11-18T06:50:40.383Z,4.70
2017-11-18T06:53:07.942Z,4.70
2017-11-18T06:55:35.477Z,4.70
2017-11-18T06:58:03.065Z,4.70
2017-11-18T07:00:30.615Z,4.70
2017-11-18T07:02:58.149Z,4.80
2017-11-18T07:05:25.718Z,4.80
2017-11-18T07:07:54.028Z,4.80
2017-11-18T07:10:21.577Z,4.80
2017-11-18T07:12:49.156Z,4.80
2017-11-18T07:15:16.726Z,4.80
2017-11-18T07:17:44.248Z,4.80
2017-11-18T07:20:12.540Z,4.90
2017-11-18T07:22:40.085Z,4.90
2017-11-18T07:25:07.645Z,4.80
2017-11-18T07:27:35.185Z,4.90
2017-11-18T07:30:03.477Z,4.90
2017-11-18T07:32:31.036Z,4.90
2017-11-18T07:34:58.588Z,4.90
2017-11-18T07:37:26.929Z,4.90
2017-11-18T07:39:54.475Z,4.90
2017-11-18T07:42:22.062Z,4.90
2017-11-18T07:44:49.621Z,4.90
2017-11-18T07:47:17.180Z,4.90
2017-11-18T07:49:44.724Z,5.00
2017-11-18T07:52:12.260Z,5.00
2017-11-18T07:54:39.845Z,5.00
2017-11-18T07:57:07.389Z,5.00
2017-11-18T07:59:34.943Z,5.00
2017-11-18T08:02:02.525Z,5.00
2017-11-18T08:04:30.090Z,5.00
2017-11-18T08:06:57.670Z,5.00
2017-11-18T08:09:26.025Z,5.10
2017-11-18T08:11:53.568Z,5.00
2017-11-18T08:14:21.122Z,5.10
2017-11-18T08:16:48.710Z,5.10
2017-11-18T08:19:16.263Z,5.10
2017-11-18T08:21:43.803Z,5.10
2017-11-18T08:24:11.377Z,5.10
2017-11-18T08:26:38.937Z,5.10
2017-11-18T08:29:06.511Z,5.10
2017-11-18T08:31:34.055Z,5.20
2017-11-18T08:34:01.585Z,5.10
2017-11-18T08:36:36.034Z,5.20
2017-11-18T08:39:03.577Z,5.20
2017-11-18T08:41:31.142Z,5.20
2017-11-18T08:43:58.686Z,5.20
2017-11-18T08:46:26.342Z,5.20
2017-11-18T08:48:53.902Z,5.20
2017-11-18T08:51:21.470Z,5.20
2017-11-18T08:53:48.997Z,5.20
2017-11-18T08:56:16.564Z,5.20
2017-11-18T08:58:44.111Z,5.20
2017-11-18T09:01:11.651Z,5.20
2017-11-18T09:03:39.988Z,5.30
2017-11-18T09:06:07.549Z,5.20
2017-11-18T09:08:35.122Z,5.20
2017-11-18T09:11:02.669Z,5.30
2017-11-18T09:13:30.235Z,5.30
2017-11-18T09:15:57.797Z,5.30
2017-11-18T09:18:25.373Z,5.30
2017-11-18T09:20:52.918Z,5.30
2017-11-18T09:23:20.505Z,5.30
2017-11-18T09:25:48.807Z,5.30
2017-11-18T09:28:16.341Z,5.30
2017-11-18T09:30:44.667Z,5.30
2017-11-18T09:33:12.207Z,5.30
2017-11-18T09:35:39.791Z,5.30
2017-11-18T09:38:07.328Z,5.30
2017-11-18T09:40:34.885Z,5.40
2017-11-18T09:43:02.446Z,5.40
2017-11-18T09:45:29.992Z,5.40
2017-11-18T09:47:57.577Z,5.50
2017-11-18T09:50:25.119Z,5.50
2017-11-18T09:52:52.705Z,5.50
2017-11-18T09:55:20.249Z,5.60
2017-11-18T09:57:47.807Z,5.60
2017-11-18T10:00:15.349Z,5.50
2017-11-18T10:02:42.890Z,5.50
2017-11-18T10:05:11.244Z,5.50
2017-11-18T10:07:38.984Z,5.50
2017-11-18T10:10:06.858Z,5.50
2017-11-18T10:12:36.020Z,5.50
2017-11-18T10:15:04.207Z,5.60
2017-11-18T10:17:31.822Z,5.50
2017-11-18T10:20:00.452Z,5.60
2017-11-18T10:22:28.504Z,5.60
2017-11-18T10:24:56.054Z,5.60
2017-11-18T10:27:23.629Z,5.60
2017-11-18T10:29:51.169Z,5.60
2017-11-18T10:32:19.603Z,5.50
2017-11-18T10:34:47.548Z,5.50
2017-11-18T10:37:16.250Z,5.50
2017-11-18T10:39:45.103Z,5.50
2017-11-18T10:42:12.722Z,5.50
2017-11-18T10:44:40.297Z,5.50
2017-11-18T10:47:08.626Z,5.40
2017-11-18T10:49:36.199Z,5.40
2017-11-18T10:52:04.047Z,5.40
2017-11-18T10:54:31.656Z,5.40
2017-11-18T10:56:59.984Z,5.50
2017-11-18T10:59:27.548Z,5.50
2017-11-18T11:01:56.227Z,5.50
2017-11-18T11:04:23.815Z,5.50
2017-11-18T11:06:51.386Z,5.60
2017-11-18T11:09:18.964Z,5.60
2017-11-18T11:11:47.292Z,5.70
2017-11-18T11:14:14.832Z,5.70
2017-11-18T11:16:42.372Z,5.70
2017-11-18T11:19:09.934Z,5.80
2017-11-18T11:21:37.505Z,5.80
2017-11-18T11:24:05.045Z,5.80
2017-11-18T11:26:33.356Z,5.70
2017-11-18T11:29:00.915Z,5.70
2017-11-18T11:31:28.448Z,5.80
2017-11-18T11:33:56.031Z,5.80
2017-11-18T11:36:23.580Z,5.80
2017-11-18T11:38:51.130Z,5.70
2017-11-18T11:41:18.683Z,5.80
2017-11-18T11:43:46.233Z,5.80
2017-11-18T11:46:14.550Z,6.00
2017-11-18T11:48:42.109Z,6.00
2017-11-18T11:51:09.689Z,6.10
2017-11-18T11:53:37.257Z,6.10
2017-11-18T11:56:04.859Z,6.20
2017-11-18T11:58:32.429Z,6.10
2017-11-18T12:00:59.957Z,6.10
2017-11-18T12:03:28.273Z,6.10
2017-11-18T12:05:55.809Z,6.10
2017-11-18T12:08:23.385Z,6.10
2017-11-18T12:10:50.912Z,6.10
2017-11-18T12:13:19.257Z,6.20
2017-11-18T12:15:46.801Z,6.20
2017-11-18T12:18:14.370Z,6.30
2017-11-18T12:20:41.933Z,6.40
2017-11-18T12:23:09.511Z,6.40
2017-11-18T12:25:37.126Z,6.50
2017-11-18T12:28:04.675Z,6.60
2017-11-18T12:30:32.251Z,6.70
2017-11-18T12:33:00.216Z,6.80
2017-11-18T12:35:27.824Z,7.10
2017-11-18T12:37:56.121Z,8.50
2017-11-18T12:40:23.671Z,8.50
2017-11-18T12:42:52.092Z,11.00
2017-11-18T12:45:19.651Z,11.00
2017-11-18T12:47:47.223Z,9.80
2017-11-18T12:50:14.776Z,8.30
2017-11-18T12:52:42.326Z,7.50
2017-11-18T12:55:09.879Z,7.50
2017-11-18T12:57:37.432Z,7.50
2017-11-18T13:00:05.008Z,7.70
2017-11-18T13:02:32.566Z,7.40
2017-11-18T13:05:00.111Z,7.00
2017-11-18T13:07:27.698Z,6.90
2017-11-18T13:09:55.270Z,7.20
2017-11-18T13:12:22.825Z,7.80
2017-11-18T13:14:50.352Z,7.40
2017-11-18T13:17:17.923Z,7.10
2017-11-18T13:19:45.456Z,6.90
2017-11-18T13:22:13.028Z,6.80
2017-11-18T13:24:40.580Z,6.70
2017-11-18T13:27:08.120Z,6.70
2017-11-18T13:29:35.684Z,6.60
2017-11-18T13:32:03.246Z,6.60
2017-11-18T13:34:30.796Z,6.50
2017-11-18T13:36:59.089Z,6.60
2017-11-18T13:39:26.673Z,6.50
2017-11-18T13:41:54.236Z,6.60
2017-11-18T13:44:21.906Z,6.60
2017-11-18T13:46:49.451Z,6.50
2017-11-18T13:49:17.042Z,6.50
2017-11-18T13:51:44.605Z,6.40
2017-11-18T13:54:12.213Z,6.40
2017-11-18T13:56:39.761Z,6.30
2017-11-18T13:59:07.327Z,6.20
2017-11-18T14:01:34.905Z,6.30
2017-11-18T14:04:02.478Z,6.30
2017-11-18T14:06:30.038Z,6.20
2017-11-18T14:08:57.619Z,6.20
2017-11-18T14:11:25.164Z,6.20
2017-11-18T14:13:52.724Z,6.30
2017-11-18T14:16:20.276Z,6.20
2017-11-18T14:18:47.817Z,6.20
2017-11-18T14:21:15.381Z,6.20
2017-11-18T14:23:42.934Z,6.20
2017-11-18T14:26:10.495Z,6.20
2017-11-18T14:28:38.055Z,6.20
2017-11-18T14:31:05.645Z,6.30
2017-11-18T14:33:33.209Z,6.30
2017-11-18T14:36:00.759Z,6.30
2017-11-18T14:38:28.324Z,6.30
2017-11-18T14:40:55.871Z,6.30
2017-11-18T14:43:23.439Z,6.30
2017-11-18T14:45:50.984Z,6.30
2017-11-18T14:48:18.539Z,6.30
2017-11-18T14:50:46.085Z,6.20
2017-11-18T14:53:13.659Z,6.10
2017-11-18T14:55:41.221Z,5.90
2017-11-18T14:58:08.767Z,5.80
2017-11-18T15:00:36.311Z,5.80
2017-11-18T15:03:03.899Z,5.80
2017-11-18T15:05:31.456Z,5.80
2017-11-18T15:07:59.045Z,5.80
2017-11-18T15:10:26.605Z,5.80
2017-11-18T15:12:54.156Z,5.80
2017-11-18T15:15:42.637Z,5.70
2017-11-18T15:18:16.561Z,5.60
2017-11-18T15:20:49.777Z,5.60
2017-11-18T15:23:22.901Z,5.60
2017-11-18T15:29:10.731Z,5.70
2017-11-18T15:31:43.892Z,5.70
2017-11-18T15:37:18.526Z,9.00
2017-11-18T15:39:46.074Z,5.70
2017-11-18T15:42:14.408Z,5.30
2017-11-18T15:44:47.562Z,5.20
2017-11-18T15:50:21.881Z,4.90
2017-11-18T15:55:56.527Z,4.60
2017-11-18T15:58:24.997Z,4.50
2017-11-18T16:00:58.847Z,4.30
2017-11-18T16:03:26.453Z,4.30
2017-11-18T16:05:53.991Z,4.30
2017-11-18T16:08:22.286Z,4.20
2017-11-18T16:10:49.827Z,4.10
2017-11-18T16:13:17.396Z,4.00
2017-11-18T16:15:44.940Z,3.80
2017-11-18T16:18:12.505Z,3.80
2017-11-18T16:20:40.052Z,3.80
2017-11-18T16:23:07.590Z,3.70
2017-11-18T16:25:35.143Z,3.70
2017-11-18T16:28:02.673Z,3.60
2017-11-18T16:30:31.004Z,3.50
2017-11-18T16:32:58.546Z,3.40
2017-11-18T16:35:26.102Z,3.40
2017-11-18T16:37:53.673Z,3.40
2017-11-18T16:40:21.205Z,3.40
2017-11-18T16:42:48.759Z,3.30
2017-11-18T16:45:17.068Z,3.30
2017-11-18T16:47:44.649Z,3.30
2017-11-18T16:50:12.188Z,3.40
2017-11-18T16:52:39.728Z,3.40
2017-11-18T16:55:07.325Z,3.40
2017-11-18T16:57:34.867Z,3.40
2017-11-18T17:00:02.435Z,3.50
2017-11-18T17:02:29.988Z,3.50
2017-11-18T17:04:57.555Z,3.50
2017-11-18T17:07:25.123Z,3.60
2017-11-18T17:09:53.134Z,3.60
2017-11-18T17:12:21.433Z,3.70
2017-11-18T17:14:48.972Z,3.70
2017-11-18T17:17:16.542Z,3.70
2017-11-18T17:19:44.064Z,3.70
2017-11-18T17:22:11.635Z,3.70
2017-11-18T17:24:39.984Z,3.70
2017-11-18T17:27:07.556Z,3.70
2017-11-18T17:29:35.116Z,3.70
2017-11-18T17:32:02.683Z,3.70
2017-11-18T17:34:30.224Z,3.70
2017-11-18T17:36:57.762Z,3.70
2017-11-18T17:39:25.320Z,3.70
2017-11-18T17:41:52.877Z,3.80
2017-11-18T17:44:20.425Z,3.80
2017-11-18T17:46:47.957Z,3.80
2017-11-18T17:49:15.521Z,3.80
2017-11-18T17:51:43.075Z,3.80
2017-11-18T17:54:11.418Z,3.80
2017-11-18T17:56:38.986Z,3.80
2017-11-18T17:59:06.536Z,3.80
2017-11-18T18:01:34.110Z,3.80
2017-11-18T18:04:01.633Z,3.80
2017-11-18T18:06:29.219Z,3.80
2017-11-18T18:08:56.839Z,3.80
2017-11-18T18:11:24.393Z,3.80
2017-11-18T18:13:51.947Z,3.80
2017-11-18T18:16:19.498Z,3.80
2017-11-18T18:18:47.063Z,3.80
2017-11-18T18:21:14.586Z,3.80
2017-11-18T18:23:42.938Z,3.80
2017-11-18T18:26:10.476Z,3.80
2017-11-18T18:28:38.010Z,3.90
2017-11-18T18:31:05.579Z,3.90
2017-11-18T18:33:33.128Z,4.00
2017-11-18T18:36:00.689Z,4.00
2017-11-18T18:38:28.241Z,4.00
2017-11-18T18:40:55.817Z,4.10
2017-11-18T18:43:23.342Z,4.10
2017-11-18T18:45:51.671Z,4.10
2017-11-18T18:48:19.207Z,4.10
2017-11-18T18:50:46.884Z,4.10
2017-11-18T18:53:14.405Z,4.10
2017-11-18T18:55:42.780Z,4.10
2017-11-18T18:58:11.065Z,4.10
2017-11-18T19:00:39.382Z,4.10
2017-11-18T19:03:07.036Z,4.10
2017-11-18T19:05:34.563Z,4.20
2017-11-18T19:08:02.151Z,4.10
2017-11-18T19:10:29.669Z,4.20
2017-11-18T19:12:57.974Z,4.20
2017-11-18T19:15:25.519Z,4.10
2017-11-18T19:17:53.055Z,4.20
2017-11-18T19:20:21.391Z,4.20
2017-11-18T19:22:48.962Z,4.10
2017-11-18T19:25:16.526Z,4.10
2017-11-18T19:27:44.094Z,4.10
2017-11-18T19:30:11.649Z,4.10
2017-11-18T19:32:39.215Z,4.20
2017-11-18T19:35:06.760Z,4.20
2017-11-18T19:37:34.295Z,4.20
2017-11-18T19:40:01.853Z,4.20
2017-11-18T19:42:29.392Z,4.20
2017-11-18T19:44:56.974Z,4.20
2017-11-18T19:47:24.520Z,4.20
2017-11-18T19:49:52.093Z,4.30
2017-11-18T19:52:19.678Z,4.30
2017-11-18T19:54:47.223Z,4.30
2017-11-18T19:57:14.827Z,4.20
2017-11-18T19:59:43.135Z,4.30
2017-11-18T20:02:10.691Z,4.20
2017-11-18T20:04:38.241Z,4.20
2017-11-18T20:07:05.826Z,4.20
2017-11-18T20:09:33.383Z,4.30
2017-11-18T20:12:00.943Z,4.20
2017-11-18T20:14:28.913Z,4.30
2017-11-18T20:16:56.559Z,4.30
2017-11-18T20:19:24.136Z,4.30
2017-11-18T20:21:51.688Z,4.30
2017-11-18T20:24:19.231Z,4.30
2017-11-18T20:26:46.787Z,4.30
2017-11-18T20:29:14.328Z,4.30
2017-11-18T20:31:42.719Z,4.30
2017-11-18T20:34:11.019Z,4.30
2017-11-18T20:36:38.552Z,4.40
2017-11-18T20:39:06.893Z,4.30
2017-11-18T20:41:34.430Z,4.30
2017-11-18T20:44:01.994Z,4.30
2017-11-18T20:46:29.536Z,4.30
2017-11-18T20:48:57.063Z,4.30
2017-11-18T20:51:25.504Z,4.30
2017-11-18T20:53:53.034Z,4.30
2017-11-18T20:56:20.617Z,4.40
2017-11-18T20:58:48.159Z,4.40
2017-11-18T21:01:15.717Z,4.30
2017-11-18T21:03:43.274Z,4.30
2017-11-18T21:06:10.815Z,4.40
2017-11-18T21:08:38.371Z,4.40
2017-11-18T21:11:05.928Z,4.40
2017-11-18T21:13:33.473Z,4.40
2017-11-18T21:16:01.782Z,4.40
2017-11-18T21:18:29.373Z,4.40
2017-11-18T21:20:57.701Z,4.40
2017-11-18T21:23:25.269Z,4.40
2017-11-18T21:25:52.829Z,4.40
2017-11-18T21:28:20.377Z,4.40
2017-11-18T21:30:47.936Z,4.40
2017-11-18T21:33:15.493Z,4.40
2017-11-18T21:35:43.069Z,4.40
2017-11-18T21:38:10.611Z,4.40
2017-11-18T21:40:38.185Z,4.50
2017-11-18T21:43:05.709Z,4.40
2017-11-18T21:45:34.060Z,4.40
2017-11-18T21:48:02.502Z,4.40
2017-11-18T21:50:30.061Z,4.40
2017-11-18T21:52:57.626Z,4.40
2017-11-18T21:55:25.189Z,4.40
2017-11-18T21:57:52.768Z,4.40
2017-11-18T22:00:20.307Z,4.40
2017-11-18T22:02:47.873Z,4.40
2017-11-18T22:05:15.437Z,4.50
2017-11-18T22:07:42.993Z,4.50
2017-11-18T22:10:10.517Z,4.50
2017-11-18T22:12:38.059Z,4.40
2017-11-18T22:15:06.402Z,4.40
2017-11-18T22:17:33.956Z,4.40
2017-11-18T22:20:01.534Z,4.40
2017-11-18T22:22:29.097Z,4.40
2017-11-18T22:24:57.501Z,4.40
2017-11-18T22:27:25.820Z,4.40
2017-11-18T22:29:53.358Z,4.40
2017-11-18T22:32:20.910Z,4.40
2017-11-18T22:34:48.451Z,4.40
2017-11-18T22:37:16.798Z,4.50
2017-11-18T22:39:44.365Z,4.40
2017-11-18T22:42:11.908Z,4.40
2017-11-18T22:44:39.456Z,4.50
2017-11-18T22:47:07.105Z,4.50
2017-11-18T22:49:34.677Z,4.50
2017-11-18T22:52:02.324Z,4.50
2017-11-18T22:54:29.887Z,4.50
2017-11-18T22:56:57.634Z,4.50
2017-11-18T22:59:25.188Z,4.50
2017-11-18T23:01:52.770Z,4.50
2017-11-18T23:04:20.322Z,4.40
2017-11-18T23:06:47.898Z,4.40
2017-11-18T23:09:15.462Z,4.50
2017-11-18T23:11:43.017Z,4.50
2017-11-18T23:14:10.544Z,4.50
2017-11-18T23:16:38.107Z,4.60
2017-11-18T23:19:05.680Z,4.60
2017-11-18T23:21:33.225Z,4.60
2017-11-18T23:24:00.816Z,4.50
2017-11-18T23:26:28.363Z,4.60
2017-11-18T23:28:55.923Z,4.60
2017-11-18T23:31:23.453Z,4.60
2017-11-18T23:33:51.011Z,4.60
2017-11-18T23:36:18.555Z,4.60
2017-11-18T23:38:46.983Z,4.60
2017-11-18T23:41:14.517Z,4.60
2017-11-18T23:43:42.072Z,4.60
2017-11-18T23:46:09.618Z,4.60
2017-11-18T23:48:37.939Z,4.60
2017-11-18T23:51:06.254Z,4.60
2017-11-18T23:53:33.785Z,4.60
2017-11-18T23:56:01.361Z,4.60
2017-11-18T23:58:28.921Z,4.50
